createdAt,value
2023-03-05T00:02:51.443Z,2.60
2023-03-05T00:07:53.529Z,2.33
2023-03-05T00:12:55.598Z,2.72
2023-03-05T00:17:57.633Z,2.85
2023-03-05T00:22:59.670Z,2.80
2023-03-05T00:28:01.684Z,4.35
2023-03-05T00:33:03.924Z,4.10
2023-03-05T00:38:05.968Z,4.82
2023-03-05T00:43:08.865Z,4.28
2023-03-05T00:48:10.992Z,3.53
2023-03-05T00:53:13.066Z,3.67
2023-03-05T00:58:15.470Z,3.55
2023-03-05T01:03:18.909Z,2.85
2023-03-05T01:08:21.331Z,3.75
2023-03-05T01:13:23.766Z,2.80
2023-03-05T01:18:25.775Z,3.20
2023-03-05T01:23:27.907Z,2.95
2023-03-05T01:28:30.116Z,3.70
2023-03-05T01:33:32.291Z,2.65
2023-03-05T01:38:34.327Z,1.70
2023-03-05T01:43:36.567Z,3.88
2023-03-05T01:48:39.278Z,3.50
2023-03-05T01:53:43.369Z,2.78
2023-03-05T01:58:46.107Z,3.42
2023-03-05T02:03:48.793Z,2.97
2023-03-05T02:08:51.089Z,2.78
2023-03-05T02:13:53.188Z,4.07
2023-03-05T02:18:55.205Z,3.60
2023-03-05T02:23:57.236Z,3.15
2023-03-05T02:29:03.283Z,3.22
2023-03-05T02:34:05.748Z,3.28
2023-03-05T02:39:09.887Z,2.85
2023-03-05T02:44:11.989Z,2.92
2023-03-05T02:49:14.299Z,2.83
2023-03-05T02:54:16.256Z,3.60
2023-03-05T02:59:18.420Z,3.50
2023-03-05T03:04:20.388Z,2.97
2023-03-05T03:09:22.386Z,2.75
2023-03-05T03:14:24.378Z,2.78
2023-03-05T03:19:26.494Z,3.92
2023-03-05T03:24:30.254Z,3.45
2023-03-05T03:29:32.287Z,4.85
2023-03-05T03:34:34.281Z,3.72
2023-03-05T03:39:36.463Z,4.43
2023-03-05T03:44:38.509Z,1.95
2023-03-05T03:49:40.581Z,3.17
2023-03-05T03:54:42.578Z,2.92
2023-03-05T03:59:46.308Z,4.45
2023-03-05T04:04:48.643Z,5.03
2023-03-05T04:09:50.953Z,4.53
2023-03-05T04:14:53.283Z,3.35
2023-03-05T04:19:55.403Z,4.70
2023-03-05T04:24:57.628Z,5.20
2023-03-05T04:29:59.666Z,5.80
2023-03-05T04:35:01.695Z,5.80
2023-03-05T04:40:04.654Z,5.30
2023-03-05T04:45:08.122Z,5.53
2023-03-05T04:50:11.363Z,6.32
2023-03-05T04:55:15.365Z,4.13
2023-03-05T05:00:18.285Z,3.22
2023-03-05T05:05:23.669Z,4.57
2023-03-05T05:10:27.229Z,3.60
2023-03-05T05:15:29.232Z,4.13
2023-03-05T05:20:31.361Z,4.43
2023-03-05T05:25:33.459Z,0.98
2023-03-05T05:30:35.467Z,4.38
2023-03-05T05:35:40.306Z,0.93
2023-03-05T05:40:42.716Z,4.57
2023-03-05T05:45:45.669Z,6.97
2023-03-05T05:50:47.716Z,4.28
2023-03-05T05:55:50.068Z,8.35
2023-03-05T06:00:52.305Z,5.82
2023-03-05T06:06:01.895Z,7.07
2023-03-05T06:11:06.437Z,10.57
2023-03-05T06:21:15.484Z,7.43
2023-03-05T06:26:21.341Z,5.68
2023-03-05T06:31:26.062Z,5.60
2023-03-05T06:36:28.652Z,6.95
2023-03-05T06:41:32.072Z,3.97
2023-03-05T06:51:40.853Z,3.95
2023-03-05T07:01:46.244Z,3.35
2023-03-05T07:06:48.309Z,4.32
2023-03-05T07:11:50.422Z,2.10
2023-03-05T07:16:52.458Z,3.47
2023-03-05T07:21:54.424Z,2.40
2023-03-05T07:26:57.792Z,1.65
2023-03-05T07:37:01.751Z,3.70
2023-03-05T07:42:03.951Z,2.70
2023-03-05T07:47:16.193Z,3.45
2023-03-05T07:52:18.833Z,3.10
2023-03-05T07:57:20.877Z,4.28
2023-03-05T08:02:23.452Z,3.20
2023-03-05T08:07:25.509Z,4.03
2023-03-05T08:12:27.497Z,2.78
2023-03-05T08:17:31.228Z,4.20
2023-03-05T08:22:34.994Z,5.85
2023-03-05T08:27:42.766Z,2.45
2023-03-05T08:32:44.948Z,4.05
2023-03-05T08:38:06.332Z,4.60
2023-03-05T08:43:08.574Z,12.55
2023-03-05T08:48:10.749Z,3.63
2023-03-05T08:53:14.791Z,4.70
2023-03-05T08:58:17.737Z,2.95
2023-03-05T09:03:19.965Z,2.88
2023-03-05T09:08:22.529Z,2.50
2023-03-05T09:13:24.685Z,1.13
2023-03-05T09:18:29.065Z,2.33
2023-03-05T09:23:32.216Z,1.40
2023-03-05T09:33:45.150Z,2.30
2023-03-05T09:38:47.468Z,2.25
2023-03-05T09:44:09.345Z,1.75
2023-03-05T09:49:48.921Z,2.42
2023-03-05T09:54:57.500Z,1.90
2023-03-05T10:00:08.196Z,2.00
2023-03-05T10:05:43.877Z,2.35
2023-03-05T10:10:50.789Z,5.00
2023-03-05T10:15:55.753Z,2.85
2023-03-05T10:21:31.003Z,3.22
2023-03-05T10:26:55.295Z,5.72
2023-03-05T10:32:34.087Z,3.28
2023-03-05T10:38:02.004Z,3.40
2023-03-05T10:43:31.700Z,1.88
2023-03-05T10:48:48.926Z,4.00
2023-03-05T10:54:12.202Z,1.88
2023-03-05T10:59:14.525Z,1.67
2023-03-05T11:04:39.059Z,3.60
2023-03-05T11:09:42.616Z,3.55
2023-03-05T11:14:50.318Z,2.25
2023-03-05T11:19:53.073Z,1.95
2023-03-05T11:25:22.036Z,3.78
2023-03-05T11:30:33.479Z,2.90
2023-03-05T11:35:39.847Z,2.22
2023-03-05T11:40:43.541Z,2.13
2023-03-05T11:45:50.901Z,3.30
2023-03-05T11:50:58.416Z,4.40
2023-03-05T11:56:18.107Z,2.50
2023-03-05T12:01:25.162Z,3.83
2023-03-05T12:06:44.895Z,5.28
2023-03-05T12:11:51.602Z,6.07
2023-03-05T12:17:08.499Z,6.32
2023-03-05T12:22:21.546Z,2.90
2023-03-05T12:27:35.907Z,2.08
2023-03-05T12:32:38.171Z,1.20
2023-03-05T12:37:50.952Z,2.38
2023-03-05T12:42:54.609Z,2.95
2023-03-05T12:47:58.325Z,5.13
2023-03-05T12:53:19.024Z,6.18
2023-03-05T12:58:30.215Z,3.88
2023-03-05T13:03:42.566Z,2.85
2023-03-05T13:08:44.938Z,3.20
2023-03-05T13:13:48.953Z,17.90
2023-03-05T13:18:53.551Z,3.45
2023-03-05T13:24:00.231Z,3.20
2023-03-05T13:29:28.876Z,3.00
2023-03-05T13:34:47.063Z,6.88
2023-03-05T13:40:11.537Z,6.72
2023-03-05T13:45:31.823Z,2.95
2023-03-05T13:50:41.292Z,5.75
2023-03-05T13:55:44.423Z,3.03
2023-03-05T14:00:47.575Z,3.08
2023-03-05T14:05:50.795Z,1.73
2023-03-05T14:10:59.300Z,3.30
2023-03-05T14:16:11.933Z,2.22
2023-03-05T14:21:15.098Z,2.28
2023-03-05T14:26:32.932Z,2.53
2023-03-05T14:32:03.858Z,2.70
2023-03-05T14:37:25.595Z,3.47
2023-03-05T14:42:32.202Z,3.70
2023-03-05T14:47:35.399Z,10.15
2023-03-05T14:52:38.721Z,4.05
2023-03-05T14:57:41.447Z,8.43
2023-03-05T15:02:44.594Z,3.75
2023-03-05T15:07:49.677Z,5.47
2023-03-05T15:12:54.381Z,6.75
2023-03-05T15:17:58.369Z,5.15
2023-03-05T15:23:01.312Z,4.80
2023-03-05T15:33:12.171Z,3.58
2023-03-05T15:38:16.956Z,4.47
2023-03-05T15:43:23.896Z,5.00
2023-03-05T15:48:27.297Z,4.78
2023-03-05T15:53:30.347Z,4.78
2023-03-05T15:58:33.417Z,5.10
2023-03-05T16:03:36.770Z,4.32
2023-03-05T16:08:41.678Z,14.05
2023-03-05T16:13:45.563Z,12.05
2023-03-05T16:18:49.681Z,10.02
2023-03-05T16:23:52.651Z,12.27
2023-03-05T16:28:55.994Z,8.63
2023-03-05T16:33:58.845Z,9.75
2023-03-05T16:39:03.735Z,6.68
2023-03-05T16:44:07.294Z,6.47
2023-03-05T16:49:10.981Z,6.40
2023-03-05T16:54:14.333Z,7.05
2023-03-05T16:59:18.623Z,8.50
2023-03-05T17:04:21.989Z,7.78
2023-03-05T17:09:26.319Z,6.22
2023-03-05T17:14:30.303Z,6.80
2023-03-05T17:19:33.516Z,4.97
2023-03-05T17:29:39.781Z,4.35
2023-03-05T17:34:45.574Z,5.22
2023-03-05T17:39:48.768Z,7.00
2023-03-05T17:49:55.122Z,6.22
2023-03-05T18:00:02.802Z,3.17
2023-03-05T18:05:07.802Z,1.98
2023-03-05T18:10:15.592Z,5.90
2023-03-05T18:15:23.516Z,6.75
2023-03-05T18:20:38.635Z,6.10
2023-03-05T18:25:41.766Z,10.63
2023-03-05T18:30:46.953Z,8.95
2023-03-05T18:35:52.802Z,8.25
2023-03-05T18:40:57.395Z,6.88
2023-03-05T18:46:00.323Z,9.07
2023-03-05T18:51:03.889Z,7.90
2023-03-05T18:56:08.318Z,11.43
2023-03-05T19:01:12.872Z,9.52
2023-03-05T19:06:18.569Z,10.45
2023-03-05T19:11:22.668Z,8.90
2023-03-05T19:16:34.293Z,8.88
2023-03-05T19:21:37.304Z,6.35
2023-03-05T19:26:40.079Z,7.15
2023-03-05T19:31:44.153Z,6.85
2023-03-05T19:36:48.288Z,6.75
2023-03-05T19:41:53.198Z,6.38
2023-03-05T19:46:56.576Z,7.13
2023-03-05T19:57:11.172Z,7.57
2023-03-05T20:02:14.560Z,5.82
2023-03-05T20:12:20.713Z,5.88
2023-03-05T20:17:24.117Z,6.78
2023-03-05T20:27:30.099Z,8.52
2023-03-05T20:32:34.557Z,6.95
2023-03-05T20:37:40.891Z,7.60
2023-03-05T20:42:44.442Z,7.72
2023-03-05T20:47:48.320Z,8.35
2023-03-05T20:52:50.812Z,10.07
2023-03-05T20:57:53.773Z,8.27
2023-03-05T21:02:57.302Z,8.75
2023-03-05T21:08:04.028Z,8.40
2023-03-05T21:13:07.244Z,8.45
2023-03-05T21:18:10.002Z,8.43
2023-03-05T21:23:12.505Z,10.00
2023-03-05T21:28:17.859Z,10.73
2023-03-05T21:33:30.928Z,10.82
2023-03-05T21:38:34.288Z,11.10
2023-03-05T21:43:39.062Z,11.50
2023-03-05T21:48:41.307Z,11.95
2023-03-05T21:53:43.439Z,12.68
2023-03-05T21:58:45.601Z,14.32
2023-03-05T22:03:48.368Z,10.30
2023-03-05T22:08:50.464Z,12.70
2023-03-05T22:13:52.480Z,12.60
2023-03-05T22:18:54.823Z,10.48
2023-03-05T22:23:57.738Z,11.07
2023-03-05T22:28:59.707Z,12.00
2023-03-05T22:34:01.768Z,10.25
2023-03-05T22:39:04.981Z,9.10
2023-03-05T22:44:06.987Z,9.23
2023-03-05T22:49:09.009Z,12.50
2023-03-05T22:54:11.094Z,12.90
2023-03-05T22:59:13.454Z,10.57
2023-03-05T23:04:29.261Z,8.57
2023-03-05T23:09:31.374Z,8.80
2023-03-05T23:14:33.394Z,10.70
2023-03-05T23:19:39.785Z,5.82
2023-03-05T23:24:42.022Z,7.28
2023-03-05T23:30:09.214Z,6.20
2023-03-05T23:35:12.773Z,1.50
2023-03-05T23:45:20.805Z,4.70
2023-03-05T23:50:34.369Z,7.93
2023-03-05T23:55:41.034Z,6.82
